Time;durP1;ratioP1;P1;durP2;ratioP2;P2;SDS_P1;SDS_P2;PMS_P1;PMS_P2;Temp;Humidity;BMP_temperature;BMP_pressure;BME280_temperature;BME280_humidity;BME280_pressure;Samples;Min_cycle;Max_cycle;Signal;HPM_P1;HPM_P2
2021/01/19 00:01:50;;;;;;;14.93;6.00;;;6.70;99.90;;;;;;5058365;28;20193;-78
2021/01/19 00:04:16;;;;;;;10.82;4.93;;;6.70;99.90;;;;;;5064337;28;20217;-79
2021/01/19 00:06:42;;;;;;;13.82;5.93;;;6.70;99.90;;;;;;5059442;28;20200;-78
2021/01/19 00:09:09;;;;;;;5.40;4.78;;;6.70;99.90;;;;;;5061865;28;20233;-77
2021/01/19 00:11:35;;;;;;;6.82;4.55;;;6.70;99.90;;;;;;5065430;28;20196;-77
2021/01/19 00:14:03;;;;;;;16.15;6.18;;;6.70;99.90;;;;;;5061391;28;20224;-77
2021/01/19 00:16:29;;;;;;;10.13;4.80;;;6.70;99.90;;;;;;5058507;28;20200;-79
2021/01/19 00:18:55;;;;;;;11.27;4.95;;;6.70;99.90;;;;;;5071890;28;20193;-79
2021/01/19 00:21:22;;;;;;;6.63;4.95;;;6.70;99.90;;;;;;5066626;28;20222;-79
2021/01/19 00:23:48;;;;;;;12.00;4.68;;;6.70;99.90;;;;;;5060718;28;20202;-77
2021/01/19 00:26:14;;;;;;;8.93;5.18;;;6.70;99.90;;;;;;5068579;28;20199;-79
2021/01/19 00:28:41;;;;;;;5.43;4.68;;;6.70;99.90;;;;;;5062967;28;20567;-79
2021/01/19 00:31:09;;;;;;;7.10;4.10;;;6.60;99.90;;;;;;5074950;28;20197;-77
2021/01/19 00:33:35;;;;;;;6.55;4.30;;;6.70;99.90;;;;;;5074511;28;20220;-79
2021/01/19 00:36:01;;;;;;;6.18;4.50;;;6.60;99.90;;;;;;5068890;28;20193;-77
2021/01/19 00:38:28;;;;;;;7.07;4.20;;;6.60;99.90;;;;;;5064848;28;20200;-78
2021/01/19 00:40:54;;;;;;;7.50;4.45;;;6.60;99.90;;;;;;5070951;28;20713;-79
2021/01/19 00:43:21;;;;;;;11.43;4.22;;;6.60;99.90;;;;;;5065333;28;20201;-77
2021/01/19 00:45:47;;;;;;;5.28;4.80;;;6.60;99.90;;;;;;5063907;28;20192;-78
2021/01/19 00:48:14;;;;;;;5.53;3.92;;;6.60;99.90;;;;;;5062133;28;20216;-77
2021/01/19 00:50:41;;;;;;;7.82;4.38;;;6.60;99.90;;;;;;5061848;28;20693;-77
2021/01/19 00:53:07;;;;;;;6.40;3.60;;;6.60;99.90;;;;;;5063245;28;20189;-78
2021/01/19 00:55:33;;;;;;;15.30;3.97;;;6.60;99.90;;;;;;5064634;28;20640;-77
2021/01/19 00:58:00;;;;;;;4.85;4.30;;;6.60;99.90;;;;;;5073714;28;20259;-78
2021/01/19 01:00:26;;;;;;;7.95;3.65;;;6.60;99.90;;;;;;5070225;28;20189;-79
2021/01/19 01:02:53;;;;;;;5.15;3.70;;;6.60;99.90;;;;;;5063864;28;20593;-78
2021/01/19 01:05:20;;;;;;;3.72;3.33;;;6.60;99.90;;;;;;5067421;28;20204;-79
2021/01/19 01:07:47;;;;;;;4.30;3.15;;;6.60;99.90;;;;;;5071295;28;20194;-78
2021/01/19 01:10:15;;;;;;;8.32;4.05;;;6.60;99.90;;;;;;5065267;28;20200;-78
2021/01/19 01:12:42;;;;;;;9.07;3.50;;;6.60;99.90;;;;;;5062001;28;20699;-78
2021/01/19 01:15:10;;;;;;;10.82;3.47;;;6.50;99.90;;;;;;5064348;28;20216;-79
2021/01/19 01:17:37;;;;;;;9.82;3.75;;;6.50;99.90;;;;;;5064610;28;20197;-77
2021/01/19 01:20:05;;;;;;;6.45;2.85;;;6.50;99.90;;;;;;5060398;28;20215;-77
2021/01/19 01:22:38;;;;;;;4.43;3.50;;;6.50;99.90;;;;;;5067090;28;20773;-77
2021/01/19 01:25:06;;;;;;;7.13;3.10;;;6.50;99.90;;;;;;5063477;28;20229;-79
2021/01/19 01:27:32;;;;;;;7.97;3.05;;;6.50;99.90;;;;;;5069346;28;20197;-76
2021/01/19 01:29:58;;;;;;;5.60;3.25;;;6.50;99.90;;;;;;5060582;28;20219;-78
2021/01/19 01:32:25;;;;;;;3.53;2.88;;;6.50;99.90;;;;;;5063860;28;20192;-79
2021/01/19 01:34:51;;;;;;;10.38;3.55;;;6.50;99.90;;;;;;5069858;28;20220;-77
2021/01/19 01:37:17;;;;;;;6.00;3.33;;;6.50;99.90;;;;;;5064892;28;20680;-76
2021/01/19 01:39:44;;;;;;;7.50;3.70;;;6.50;99.90;;;;;;5069113;28;20222;-75
2021/01/19 01:42:19;;;;;;;10.85;3.22;;;6.50;99.90;;;;;;5058616;28;20266;-76
2021/01/19 01:44:46;;;;;;;8.30;3.20;;;6.50;99.90;;;;;;5060201;28;20206;-75
2021/01/19 01:47:18;;;;;;;3.15;2.85;;;6.50;99.90;;;;;;5058431;28;20201;-75
2021/01/19 01:49:44;;;;;;;7.60;3.70;;;6.50;99.90;;;;;;5057903;28;20193;-76
2021/01/19 01:52:11;;;;;;;10.73;3.33;;;6.50;99.90;;;;;;5061379;28;20212;-74
2021/01/19 01:54:37;;;;;;;7.60;3.63;;;6.40;99.90;;;;;;5074029;28;20216;-75
2021/01/19 01:57:07;;;;;;;4.63;3.30;;;6.40;99.90;;;;;;5062697;28;20200;-76
2021/01/19 01:59:33;;;;;;;7.35;3.28;;;6.50;99.90;;;;;;5066297;28;20291;-75
2021/01/19 02:02:08;;;;;;;4.38;3.20;;;6.40;99.90;;;;;;5061655;28;20255;-76
2021/01/19 02:04:34;;;;;;;4.65;3.05;;;6.40;99.90;;;;;;5060835;28;20195;-75
2021/01/19 02:07:06;;;;;;;4.25;3.05;;;6.40;99.90;;;;;;5070795;28;20636;-75
2021/01/19 02:09:40;;;;;;;5.35;3.10;;;6.40;99.90;;;;;;5069918;28;20288;-75
2021/01/19 02:12:15;;;;;;;12.02;3.47;;;6.40;99.90;;;;;;5067145;28;20196;-77
2021/01/19 02:15:00;;;;;;;9.93;3.60;;;6.40;99.90;;;;;;5060835;28;20249;-74
2021/01/19 02:17:33;;;;;;;4.43;2.90;;;6.40;99.90;;;;;;5063382;28;20794;-76
2021/01/19 02:20:19;;;;;;;13.15;3.30;;;6.40;99.90;;;;;;5063835;28;20585;-75
2021/01/19 02:23:18;;;;;;;6.18;2.92;;;6.40;99.90;;;;;;5060331;28;20196;-76
2021/01/19 02:26:23;;;;;;;6.75;3.00;;;6.30;99.90;;;;;;5058437;28;20217;-74
2021/01/19 02:28:53;;;;;;;3.55;2.88;;;6.30;99.90;;;;;;4975493;28;20208;-74
2021/01/19 02:31:59;;;;;;;7.18;3.35;;;6.20;99.90;;;;;;5068651;28;20197;-76
2021/01/19 02:34:33;;;;;;;12.48;3.65;;;6.20;99.90;;;;;;5069752;28;20220;-76
2021/01/19 02:37:06;;;;;;;6.50;2.88;;;6.20;99.90;;;;;;5067217;28;20271;-77
2021/01/19 02:39:44;;;;;;;5.97;3.00;;;6.20;99.90;;;;;;5067720;28;20366;-77
2021/01/19 02:42:15;;;;;;;10.55;3.03;;;6.20;99.90;;;;;;5070569;28;20280;-74
2021/01/19 02:44:44;;;;;;;3.13;2.83;;;6.10;99.90;;;;;;5059981;28;20199;-75
2021/01/19 02:47:14;;;;;;;8.32;4.15;;;6.20;99.90;;;;;;5061450;28;20200;-76
2021/01/19 02:49:42;;;;;;;3.50;3.15;;;6.10;99.90;;;;;;5071344;28;20208;-76
2021/01/19 02:52:09;;;;;;;3.35;2.80;;;6.10;99.90;;;;;;5070731;28;20645;-75
2021/01/19 02:54:37;;;;;;;7.95;3.25;;;6.10;99.90;;;;;;5073024;28;20281;-75
2021/01/19 02:57:16;;;;;;;8.10;2.80;;;6.10;99.90;;;;;;5061942;28;20204;-75
2021/01/19 02:59:50;;;;;;;4.30;2.92;;;6.10;99.90;;;;;;5054399;28;20205;-75
2021/01/19 03:02:22;;;;;;;5.13;3.22;;;6.10;99.90;;;;;;5058688;28;20221;-75
2021/01/19 03:04:53;;;;;;;7.15;2.90;;;6.10;99.90;;;;;;5067254;28;20197;-76
2021/01/19 03:07:21;;;;;;;6.82;3.03;;;6.10;99.90;;;;;;5058726;28;20563;-75
2021/01/19 03:09:49;;;;;;;7.45;3.95;;;6.10;99.90;;;;;;5066427;28;20196;-76
2021/01/19 03:12:17;;;;;;;9.75;3.40;;;6.10;99.90;;;;;;5057430;28;20212;-75
2021/01/19 03:14:43;;;;;;;7.10;3.85;;;6.10;99.90;;;;;;5066764;28;20258;-75
2021/01/19 03:17:12;;;;;;;11.02;3.83;;;6.10;99.90;;;;;;5059622;28;20243;-76
2021/01/19 03:19:40;;;;;;;7.68;4.20;;;6.20;99.90;;;;;;5071045;28;20200;-76
2021/01/19 03:22:07;;;;;;;6.43;3.17;;;6.20;99.90;;;;;;5067227;28;20267;-75
2021/01/19 03:24:34;;;;;;;5.45;2.92;;;6.20;99.90;;;;;;5068933;28;20242;-76
2021/01/19 03:27:00;;;;;;;5.03;2.78;;;6.20;99.90;;;;;;5061490;28;20203;-77
2021/01/19 03:29:27;;;;;;;11.27;3.00;;;6.20;99.90;;;;;;5066361;28;20184;-75
2021/01/19 03:31:53;;;;;;;4.03;3.22;;;6.20;99.90;;;;;;5063928;28;20189;-75
2021/01/19 03:34:20;;;;;;;7.50;3.50;;;6.20;99.90;;;;;;5060640;28;20229;-77
2021/01/19 03:36:48;;;;;;;6.72;3.08;;;6.20;99.90;;;;;;5068605;28;20204;-76
2021/01/19 03:39:14;;;;;;;4.53;3.47;;;6.20;99.90;;;;;;5067200;28;20425;-76
2021/01/19 03:41:41;;;;;;;7.75;3.78;;;6.20;99.90;;;;;;5061167;28;20197;-76
2021/01/19 03:44:08;;;;;;;3.17;2.65;;;6.20;99.90;;;;;;5068637;28;20245;-76
2021/01/19 03:46:35;;;;;;;3.22;3.00;;;6.30;99.90;;;;;;5067927;28;20643;-75
2021/01/19 03:49:01;;;;;;;11.40;3.92;;;6.30;99.90;;;;;;5069438;28;20203;-75
2021/01/19 03:51:28;;;;;;;8.95;3.25;;;6.30;99.90;;;;;;5069747;28;20199;-75
2021/01/19 03:53:55;;;;;;;4.40;3.08;;;6.30;99.90;;;;;;5063551;28;20232;-76
2021/01/19 03:56:22;;;;;;;5.20;3.00;;;6.30;99.90;;;;;;5064849;28;20576;-77
2021/01/19 03:58:49;;;;;;;6.75;4.00;;;6.30;99.90;;;;;;5067536;28;20200;-76
2021/01/19 04:01:15;;;;;;;4.53;4.07;;;6.30;99.90;;;;;;5068873;28;20204;-75
2021/01/19 04:03:41;;;;;;;6.20;3.03;;;6.30;99.90;;;;;;5070381;28;20226;-77
2021/01/19 04:06:09;;;;;;;9.15;2.65;;;6.30;99.90;;;;;;5073761;28;20199;-76
2021/01/19 04:08:36;;;;;;;13.18;3.25;;;6.30;99.90;;;;;;5067663;28;20216;-75
2021/01/19 04:11:04;;;;;;;5.95;3.40;;;6.40;99.90;;;;;;5074156;28;20454;-76
2021/01/19 04:13:30;;;;;;;9.48;3.50;;;6.40;99.90;;;;;;5069662;28;20195;-75
2021/01/19 04:15:57;;;;;;;4.88;3.00;;;6.40;99.90;;;;;;5068146;28;20220;-75
2021/01/19 04:18:24;;;;;;;6.05;2.55;;;6.40;99.90;;;;;;5064310;28;20185;-76
2021/01/19 04:20:51;;;;;;;8.32;4.55;;;6.40;99.90;;;;;;5069063;28;20243;-76
2021/01/19 04:23:17;;;;;;;6.47;2.75;;;6.40;99.90;;;;;;5066652;28;20270;-77
2021/01/19 04:25:44;;;;;;;3.70;2.50;;;6.40;99.90;;;;;;5061472;28;20208;-75
2021/01/19 04:28:12;;;;;;;3.13;2.72;;;6.40;99.90;;;;;;5061138;28;20196;-75
2021/01/19 04:30:38;;;;;;;7.88;3.00;;;6.50;99.90;;;;;;5076298;28;20196;-76
2021/01/19 04:33:05;;;;;;;8.38;2.58;;;6.50;99.90;;;;;;5068650;28;20204;-75
2021/01/19 04:35:32;;;;;;;5.05;2.70;;;6.50;99.90;;;;;;5070856;28;20262;-75
2021/01/19 04:37:58;;;;;;;9.32;2.80;;;6.50;99.90;;;;;;5059758;28;20200;-75
2021/01/19 04:40:25;;;;;;;7.25;3.60;;;6.50;99.90;;;;;;5057286;28;20197;-76
2021/01/19 04:42:51;;;;;;;7.05;3.20;;;6.50;99.90;;;;;;5071746;28;20228;-75
2021/01/19 04:45:19;;;;;;;4.25;2.90;;;6.60;99.90;;;;;;5059409;28;20189;-77
2021/01/19 04:47:46;;;;;;;5.25;2.20;;;6.60;99.90;;;;;;5066118;28;20234;-75
2021/01/19 04:50:14;;;;;;;2.75;2.15;;;6.60;99.90;;;;;;5073083;28;20207;-76
2021/01/19 04:52:42;;;;;;;3.72;2.30;;;6.60;99.90;;;;;;5068083;28;20200;-78
2021/01/19 04:55:10;;;;;;;4.18;2.78;;;6.60;99.90;;;;;;5060561;28;20275;-74
2021/01/19 04:57:38;;;;;;;7.30;2.40;;;6.60;99.90;;;;;;5062079;28;20192;-77
2021/01/19 05:00:08;;;;;;;3.13;2.30;;;6.60;99.90;;;;;;5061508;28;20220;-76
2021/01/19 05:03:17;;;;;;;5.68;2.20;;;6.60;99.90;;;;;;5058608;28;20220;-75
2021/01/19 05:06:15;;;;;;;5.20;2.15;;;6.60;99.90;;;;;;5047407;28;20189;-75
2021/01/19 05:09:07;;;;;;;3.88;2.10;;;6.60;99.90;;;;;;5065025;28;20196;-75
2021/01/19 05:11:52;;;;;;;3.17;2.30;;;6.70;99.90;;;;;;5063470;28;20197;-75
2021/01/19 05:14:20;;;;;;;4.20;1.92;;;6.70;99.90;;;;;;5060843;28;20298;-76
2021/01/19 05:16:48;;;;;;;4.25;2.22;;;6.70;99.90;;;;;;5070930;28;20199;-76
2021/01/19 05:19:22;;;;;;;2.65;2.17;;;6.70;99.90;;;;;;5060592;28;20221;-74
2021/01/19 05:21:52;;;;;;;9.18;2.10;;;6.70;99.90;;;;;;5065595;28;20199;-74
2021/01/19 05:24:19;;;;;;;4.93;2.80;;;6.80;99.90;;;;;;5059977;28;20216;-74
2021/01/19 05:26:45;;;;;;;4.53;2.45;;;6.80;99.90;;;;;;5068364;28;20258;-75
2021/01/19 05:29:12;;;;;;;5.43;2.40;;;6.80;99.90;;;;;;5064498;28;20524;-76
2021/01/19 05:31:38;;;;;;;2.58;1.95;;;6.80;99.90;;;;;;5066227;28;20241;-74
2021/01/19 05:34:08;;;;;;;5.50;2.45;;;6.80;99.90;;;;;;5063787;28;20213;-75
2021/01/19 05:36:41;;;;;;;10.68;2.85;;;6.80;99.90;;;;;;5064854;28;20192;-74
2021/01/19 05:39:09;;;;;;;5.20;2.72;;;6.80;99.90;;;;;;5070453;28;20205;-78
2021/01/19 05:41:38;;;;;;;1.85;1.75;;;6.80;99.90;;;;;;5066368;28;20616;-77
2021/01/19 05:44:13;;;;;;;3.28;2.10;;;6.90;99.90;;;;;;5064851;28;20195;-79
2021/01/19 05:46:45;;;;;;;5.72;2.50;;;6.90;99.90;;;;;;5066664;28;20204;-79
2021/01/19 05:49:16;;;;;;;2.10;1.90;;;6.80;99.90;;;;;;5068344;28;20646;-77
2021/01/19 05:51:44;;;;;;;5.32;1.88;;;6.90;99.90;;;;;;5059001;28;20224;-80
2021/01/19 05:54:21;;;;;;;5.88;1.92;;;6.90;99.90;;;;;;5054679;28;20212;-78
2021/01/19 05:56:49;;;;;;;8.43;1.92;;;6.90;99.90;;;;;;5070970;28;20278;-79
2021/01/19 05:59:33;;;;;;;2.38;2.17;;;6.90;99.90;;;;;;5067130;28;20193;-78
2021/01/19 06:02:02;;;;;;;4.68;2.42;;;6.90;99.90;;;;;;5062907;28;20213;-79
2021/01/19 06:04:36;;;;;;;1.50;1.40;;;6.90;99.90;;;;;;5067068;28;20188;-79
2021/01/19 06:07:05;;;;;;;5.07;2.00;;;6.90;99.90;;;;;;5078084;28;20546;-77
2021/01/19 06:09:32;;;;;;;3.13;1.73;;;6.90;99.90;;;;;;5060061;28;20189;-78
2021/01/19 06:11:58;;;;;;;1.85;1.73;;;7.00;99.90;;;;;;5067903;28;20201;-79
2021/01/19 06:14:26;;;;;;;2.95;1.85;;;7.00;99.90;;;;;;5063338;28;20229;-79
2021/01/19 06:17:04;;;;;;;1.80;1.70;;;7.00;99.90;;;;;;5066280;28;20206;-80
2021/01/19 06:19:31;;;;;;;1.40;1.30;;;7.00;99.90;;;;;;5063327;28;20303;-78
2021/01/19 06:21:58;;;;;;;1.50;1.40;;;7.00;99.90;;;;;;5069996;28;20193;-80
2021/01/19 06:24:33;;;;;;;2.65;1.38;;;7.00;99.90;;;;;;5066952;28;20266;-77
2021/01/19 06:26:59;;;;;;;3.22;2.83;;;6.90;99.90;;;;;;5062945;28;20192;-78
2021/01/19 06:29:27;;;;;;;1.58;1.40;;;6.90;99.90;;;;;;5061339;28;20239;-80
2021/01/19 06:31:56;;;;;;;1.77;1.40;;;6.90;99.90;;;;;;5062770;28;20543;-80
2021/01/19 06:34:28;;;;;;;1.60;1.50;;;7.00;99.90;;;;;;5070513;28;20220;-78
2021/01/19 06:36:54;;;;;;;3.88;2.50;;;7.00;99.90;;;;;;5069962;28;20223;-78
2021/01/19 06:39:29;;;;;;;1.75;1.65;;;7.00;99.90;;;;;;5062608;28;20196;-78
2021/01/19 06:42:05;;;;;;;2.45;2.25;;;7.00;99.90;;;;;;5069542;28;20211;-78
2021/01/19 06:44:37;;;;;;;2.33;1.70;;;7.00;99.90;;;;;;5058022;28;20197;-78
2021/01/19 06:47:04;;;;;;;2.13;1.90;;;7.00;99.90;;;;;;5069377;28;20204;-80
2021/01/19 06:49:33;;;;;;;2.75;1.80;;;7.00;99.90;;;;;;5068163;28;20197;-79
2021/01/19 06:52:08;;;;;;;3.45;2.35;;;7.00;99.90;;;;;;5063719;28;20203;-78
2021/01/19 06:55:03;;;;;;;2.80;1.73;;;7.10;99.90;;;;;;5061537;28;20222;-79
2021/01/19 06:57:33;;;;;;;3.10;2.08;;;7.00;99.90;;;;;;5036516;28;20233;-78
2021/01/19 07:00:09;;;;;;;1.60;1.50;;;7.00;99.90;;;;;;5055212;28;20212;-80
2021/01/19 07:02:38;;;;;;;3.40;2.15;;;7.00;99.90;;;;;;5059398;28;20228;-78
2021/01/19 07:05:10;;;;;;;2.25;1.70;;;7.00;99.90;;;;;;5069661;28;20587;-77
2021/01/19 07:07:41;;;;;;;2.00;1.50;;;7.00;99.90;;;;;;5065893;28;20557;-78
2021/01/19 07:10:11;;;;;;;3.53;2.00;;;7.00;99.90;;;;;;5064573;28;20549;-76
2021/01/19 07:12:58;;;;;;;3.15;1.75;;;7.00;99.90;;;;;;5067044;28;20593;-77
2021/01/19 07:16:02;;;;;;;1.88;1.63;;;7.00;99.90;;;;;;5065641;28;20624;-77
2021/01/19 07:18:44;;;;;;;2.13;1.92;;;7.00;99.90;;;;;;5063782;28;20200;-76
2021/01/19 07:21:12;;;;;;;6.43;2.45;;;7.00;99.90;;;;;;5071093;28;20544;-78
2021/01/19 07:24:15;;;;;;;4.15;2.40;;;7.00;99.90;;;;;;5073266;28;20187;-78
2021/01/19 07:26:44;;;;;;;3.50;1.70;;;6.90;99.90;;;;;;5066825;28;20189;-79
2021/01/19 07:29:11;;;;;;;6.75;2.20;;;6.90;99.90;;;;;;5060641;28;20254;-77
2021/01/19 07:31:37;;;;;;;3.05;2.20;;;6.90;99.90;;;;;;5067453;28;20197;-78
2021/01/19 07:34:05;;;;;;;4.45;2.25;;;6.90;99.90;;;;;;5069012;28;20210;-78
2021/01/19 07:36:32;;;;;;;4.45;2.30;;;6.90;99.90;;;;;;5070891;28;20195;-77
2021/01/19 07:38:58;;;;;;;2.42;2.22;;;6.90;99.90;;;;;;5064795;28;20652;-76
2021/01/19 07:41:26;;;;;;;2.88;2.13;;;6.90;99.90;;;;;;5073304;28;20188;-77
2021/01/19 07:43:53;;;;;;;4.53;2.08;;;6.90;99.90;;;;;;5061146;28;20213;-77
2021/01/19 07:46:23;;;;;;;1.80;1.70;;;6.90;99.90;;;;;;5075205;28;20210;-76
2021/01/19 07:49:00;;;;;;;3.47;2.10;;;6.90;99.90;;;;;;5066752;28;20196;-78
2021/01/19 07:51:37;;;;;;;13.55;2.00;;;6.90;99.90;;;;;;5074109;28;20195;-78
2021/01/19 07:54:05;;;;;;;1.85;1.75;;;6.90;99.90;;;;;;5066599;28;20207;-78
2021/01/19 07:56:32;;;;;;;2.17;1.65;;;6.80;99.90;;;;;;5062589;28;20211;-78
2021/01/19 07:58:59;;;;;;;2.58;1.80;;;6.80;99.90;;;;;;5070079;28;20201;-77
2021/01/19 08:01:28;;;;;;;2.22;2.03;;;6.90;99.90;;;;;;5067504;28;20197;-77
2021/01/19 08:03:55;;;;;;;1.40;1.30;;;6.90;99.90;;;;;;5060894;28;20734;-76
2021/01/19 08:06:31;;;;;;;4.90;2.20;;;6.80;99.90;;;;;;5061701;28;20208;-78
2021/01/19 08:09:08;;;;;;;6.45;1.88;;;6.80;99.90;;;;;;5066787;28;20289;-78
2021/01/19 08:11:35;;;;;;;1.83;1.70;;;6.80;99.90;;;;;;5065888;28;20191;-77
2021/01/19 08:14:01;;;;;;;1.75;1.65;;;6.80;99.90;;;;;;5060673;28;20201;-77
2021/01/19 08:16:32;;;;;;;2.67;1.80;;;6.80;99.90;;;;;;5061657;28;20617;-77
2021/01/19 08:19:09;;;;;;;7.32;2.92;;;6.80;99.90;;;;;;5060921;28;20189;-78
2021/01/19 08:21:37;;;;;;;2.03;1.83;;;6.80;99.90;;;;;;5060455;28;20196;-77
2021/01/19 08:24:06;;;;;;;5.15;1.98;;;6.80;99.90;;;;;;5060378;28;20221;-79
2021/01/19 08:26:32;;;;;;;3.22;1.63;;;6.80;99.90;;;;;;5068118;28;20197;-77
2021/01/19 08:29:01;;;;;;;3.80;1.95;;;6.80;99.90;;;;;;5064832;28;20197;-78
2021/01/19 08:31:29;;;;;;;1.45;1.30;;;6.80;99.90;;;;;;5066024;28;20284;-78
2021/01/19 08:34:00;;;;;;;5.82;2.22;;;6.80;99.90;;;;;;5068493;28;20212;-78
2021/01/19 08:36:28;;;;;;;2.35;1.55;;;6.80;99.90;;;;;;5062711;28;20204;-77
2021/01/19 08:38:56;;;;;;;1.45;1.35;;;6.70;99.90;;;;;;5072827;28;20237;-78
2021/01/19 08:41:23;;;;;;;1.60;1.45;;;6.70;99.90;;;;;;5056796;28;20235;-78
2021/01/19 08:43:54;;;;;;;3.17;1.70;;;6.70;99.90;;;;;;5064882;28;20348;-78
2021/01/19 08:46:20;;;;;;;5.43;1.98;;;6.70;99.90;;;;;;5064838;28;20207;-77
2021/01/19 08:48:49;;;;;;;2.53;1.90;;;6.70;99.90;;;;;;5065986;28;20201;-78
2021/01/19 08:51:23;;;;;;;3.00;1.90;;;6.70;99.90;;;;;;5055613;28;20196;-80
2021/01/19 08:53:49;;;;;;;6.63;2.58;;;6.70;99.90;;;;;;5078017;28;20195;-79
2021/01/19 08:56:23;;;;;;;2.15;1.70;;;6.70;99.90;;;;;;5066479;28;20228;-78
2021/01/19 08:58:51;;;;;;;3.58;2.05;;;6.70;99.90;;;;;;5071256;28;20199;-78
2021/01/19 09:01:18;;;;;;;2.55;1.50;;;6.70;99.90;;;;;;5062592;28;20213;-78
2021/01/19 09:03:55;;;;;;;3.97;1.60;;;6.70;99.90;;;;;;5069067;28;20235;-79
2021/01/19 09:06:22;;;;;;;3.05;1.70;;;6.70;99.90;;;;;;5072561;28;20204;-77
2021/01/19 09:08:56;;;;;;;1.95;1.50;;;6.70;99.90;;;;;;5052267;28;20205;-78
2021/01/19 09:11:26;;;;;;;2.65;1.70;;;6.70;99.90;;;;;;5064258;28;20211;-78
2021/01/19 09:14:00;;;;;;;2.28;1.40;;;6.70;99.90;;;;;;5064545;28;20198;-78
2021/01/19 09:16:28;;;;;;;2.05;1.55;;;6.70;99.90;;;;;;5071427;28;20192;-78
2021/01/19 09:18:55;;;;;;;2.88;1.77;;;6.70;99.90;;;;;;5063049;28;20284;-78
2021/01/19 09:21:23;;;;;;;1.67;1.58;;;6.70;99.90;;;;;;5066788;28;20193;-77
2021/01/19 09:23:50;;;;;;;1.60;1.50;;;6.70;99.90;;;;;;5056310;28;20201;-78
2021/01/19 09:26:16;;;;;;;2.70;1.58;;;6.70;99.90;;;;;;5065454;28;20617;-78
2021/01/19 09:28:43;;;;;;;2.45;2.25;;;6.70;99.90;;;;;;5054678;28;20202;-78
2021/01/19 09:31:16;;;;;;;2.50;1.60;;;6.80;99.90;;;;;;5063090;28;20190;-85
2021/01/19 09:33:44;;;;;;;4.80;1.92;;;6.80;99.90;;;;;;5058480;28;20666;-77
2021/01/19 09:36:12;;;;;;;2.00;1.80;;;6.80;99.90;;;;;;5054757;28;20216;-77
2021/01/19 09:38:40;;;;;;;3.30;2.10;;;6.80;99.90;;;;;;5055432;28;20195;-76
2021/01/19 09:41:08;;;;;;;3.33;2.65;;;6.80;99.90;;;;;;5052056;28;20699;-78
2021/01/19 09:43:36;;;;;;;3.10;1.90;;;6.80;99.90;;;;;;5056214;28;20197;-80
2021/01/19 09:46:07;;;;;;;4.30;1.92;;;6.80;99.90;;;;;;5059502;28;20284;-78
2021/01/19 09:48:36;;;;;;;2.83;1.80;;;6.80;99.90;;;;;;5057339;28;20224;-78
2021/01/19 09:51:04;;;;;;;2.13;1.90;;;6.80;99.90;;;;;;5058763;28;20414;-78
2021/01/19 09:53:33;;;;;;;3.58;1.70;;;6.80;99.90;;;;;;5058180;28;20197;-78
2021/01/19 09:56:01;;;;;;;1.45;1.35;;;6.80;99.90;;;;;;5062471;28;20561;-78
2021/01/19 09:58:29;;;;;;;1.52;1.42;;;6.90;99.90;;;;;;5064042;28;20193;-81
2021/01/19 10:00:56;;;;;;;1.75;1.65;;;6.90;99.90;;;;;;5064417;28;20200;-79
2021/01/19 10:03:26;;;;;;;3.10;1.50;;;6.90;99.90;;;;;;5064843;28;20225;-78
2021/01/19 10:06:01;;;;;;;1.58;1.40;;;7.00;99.90;;;;;;5061701;28;20198;-80
2021/01/19 10:08:28;;;;;;;2.65;1.63;;;7.00;99.90;;;;;;5062675;28;20196;-77
2021/01/19 10:10:56;;;;;;;4.13;2.65;;;7.00;99.90;;;;;;5061446;28;20606;-77
2021/01/19 10:13:28;;;;;;;3.22;1.77;;;7.00;99.90;;;;;;5063430;28;20196;-78
2021/01/19 10:16:01;;;;;;;1.60;1.50;;;7.00;99.90;;;;;;5063911;28;20295;-78
2021/01/19 10:18:29;;;;;;;1.83;1.73;;;7.00;99.90;;;;;;5066231;28;20588;-79
2021/01/19 10:20:55;;;;;;;2.15;1.98;;;7.10;99.90;;;;;;5064947;28;20215;-77
2021/01/19 10:23:27;;;;;;;2.35;2.10;;;7.10;99.90;;;;;;5065215;28;20534;-78
2021/01/19 10:26:08;;;;;;;5.05;2.42;;;7.10;99.90;;;;;;5059217;28;20213;-77
2021/01/19 10:28:41;;;;;;;3.30;2.00;;;7.10;99.90;;;;;;5052872;28;20240;-77
2021/01/19 10:31:27;;;;;;;3.40;2.35;;;7.10;99.90;;;;;;5052338;28;20229;-77
2021/01/19 10:33:57;;;;;;;1.85;1.75;;;7.10;99.90;;;;;;5059049;28;20891;-78
2021/01/19 10:36:26;;;;;;;2.03;1.80;;;7.10;99.90;;;;;;5058953;28;20285;-78
2021/01/19 10:38:53;;;;;;;1.60;1.50;;;7.10;99.90;;;;;;5056124;28;20193;-77
2021/01/19 10:41:28;;;;;;;2.00;1.80;;;7.10;99.90;;;;;;5066486;28;20258;-79
2021/01/19 10:43:56;;;;;;;3.50;1.60;;;7.10;99.90;;;;;;5053354;28;20228;-78
2021/01/19 10:46:24;;;;;;;1.73;1.50;;;7.10;99.90;;;;;;5062679;28;20238;-79
2021/01/19 10:49:04;;;;;;;1.48;1.38;;;7.20;99.90;;;;;;5066805;28;20206;-77
2021/01/19 10:51:32;;;;;;;2.75;1.85;;;7.20;99.90;;;;;;5063077;28;20228;-77
2021/01/19 10:54:13;;;;;;;2.28;1.92;;;7.20;99.90;;;;;;5063828;28;20204;-78
2021/01/19 10:56:43;;;;;;;2.20;1.60;;;7.20;99.90;;;;;;5053784;28;20197;-82
2021/01/19 10:59:10;;;;;;;2.15;1.70;;;7.20;99.90;;;;;;5059553;28;20201;-77
2021/01/19 11:01:37;;;;;;;2.38;2.17;;;7.20;99.90;;;;;;5058261;28;20197;-77
2021/01/19 11:04:05;;;;;;;2.08;1.90;;;7.30;99.90;;;;;;5064531;28;20225;-77
2021/01/19 11:06:33;;;;;;;2.58;2.35;;;7.30;99.90;;;;;;5058647;28;20238;-78
2021/01/19 11:09:00;;;;;;;1.80;1.70;;;7.30;99.90;;;;;;5062763;28;20284;-81
2021/01/19 11:11:27;;;;;;;1.80;1.70;;;7.30;99.90;;;;;;5060235;28;20482;-80
2021/01/19 11:13:59;;;;;;;1.77;1.67;;;7.30;99.90;;;;;;5059768;28;20197;-80
2021/01/19 11:16:30;;;;;;;2.70;1.88;;;7.30;99.90;;;;;;5062403;28;20233;-78
2021/01/19 11:18:59;;;;;;;1.60;1.50;;;7.30;99.90;;;;;;5053734;28;20238;-78
2021/01/19 11:21:26;;;;;;;3.90;1.80;;;7.30;99.90;;;;;;5051140;28;20192;-78
2021/01/19 11:23:53;;;;;;;4.35;1.70;;;7.30;99.90;;;;;;5059655;28;20649;-78
2021/01/19 11:26:19;;;;;;;2.85;1.55;;;7.40;99.90;;;;;;5055334;28;20219;-79
2021/01/19 11:28:46;;;;;;;2.15;1.95;;;7.40;99.90;;;;;;5052482;28;20200;-76
2021/01/19 11:31:19;;;;;;;1.98;1.75;;;7.40;99.90;;;;;;5052496;28;20289;-77
2021/01/19 11:33:45;;;;;;;5.05;4.55;;;7.40;99.90;;;;;;5051507;28;20201;-78
2021/01/19 11:36:18;;;;;;;2.30;1.60;;;7.50;99.90;;;;;;5052401;28;20221;-78
2021/01/19 11:38:45;;;;;;;1.98;1.88;;;7.50;99.90;;;;;;5062583;28;20774;-78
2021/01/19 11:41:15;;;;;;;1.70;1.60;;;7.60;99.90;;;;;;5059740;28;20946;-76
2021/01/19 11:43:42;;;;;;;1.60;1.48;;;7.60;99.90;;;;;;5061580;28;20201;-79
2021/01/19 11:46:09;;;;;;;1.75;1.65;;;7.60;99.90;;;;;;5058678;28;21138;-77
2021/01/19 11:48:37;;;;;;;1.90;1.80;;;7.60;99.90;;;;;;5059574;28;20198;-77
2021/01/19 11:51:04;;;;;;;2.00;1.90;;;7.70;99.90;;;;;;5047407;28;20204;-77
2021/01/19 11:53:31;;;;;;;1.67;1.58;;;7.70;99.90;;;;;;5058196;28;20204;-78
2021/01/19 11:56:02;;;;;;;2.25;1.65;;;7.70;99.90;;;;;;5053165;28;20221;-76
2021/01/19 11:58:29;;;;;;;1.67;1.58;;;7.70;99.90;;;;;;5059476;28;20205;-76
2021/01/19 12:00:56;;;;;;;2.42;2.22;;;7.70;99.90;;;;;;5059767;28;20213;-77
2021/01/19 12:03:23;;;;;;;3.20;2.15;;;7.80;99.90;;;;;;5059275;28;21042;-78
2021/01/19 12:05:51;;;;;;;2.75;1.80;;;7.80;99.90;;;;;;5056989;28;20267;-78
2021/01/19 12:08:17;;;;;;;1.90;1.80;;;7.80;99.90;;;;;;5069117;28;20205;-78
2021/01/19 12:10:45;;;;;;;3.45;1.95;;;7.80;99.90;;;;;;5058261;28;20197;-78
2021/01/19 12:13:12;;;;;;;4.30;3.60;;;7.90;99.90;;;;;;5066318;28;20197;-77
2021/01/19 12:15:39;;;;;;;1.85;1.75;;;7.90;99.90;;;;;;5059601;28;20228;-78
2021/01/19 12:18:06;;;;;;;1.48;1.38;;;7.90;99.90;;;;;;5061275;28;20235;-77
2021/01/19 12:20:33;;;;;;;1.90;1.80;;;7.90;99.90;;;;;;5060659;28;20220;-77
2021/01/19 12:23:01;;;;;;;1.52;1.42;;;7.90;99.90;;;;;;5058451;28;20202;-76
2021/01/19 12:25:29;;;;;;;1.88;1.77;;;8.00;99.90;;;;;;5060281;28;20215;-76
2021/01/19 12:27:56;;;;;;;1.52;1.42;;;8.00;99.90;;;;;;5056345;28;20230;-77
2021/01/19 12:30:23;;;;;;;2.00;1.80;;;8.00;99.90;;;;;;5056257;28;20221;-78
2021/01/19 12:32:52;;;;;;;1.75;1.65;;;8.00;99.90;;;;;;5053130;28;20208;-77
2021/01/19 12:35:19;;;;;;;1.63;1.52;;;8.00;99.90;;;;;;5056560;28;20239;-78
2021/01/19 12:37:46;;;;;;;1.80;1.70;;;8.10;99.90;;;;;;5063749;28;20578;-76
2021/01/19 12:40:17;;;;;;;2.78;2.25;;;8.10;99.90;;;;;;5058301;28;20207;-77
2021/01/19 12:42:44;;;;;;;2.00;1.77;;;8.10;99.90;;;;;;5060592;28;20206;-77
2021/01/19 12:45:12;;;;;;;2.95;2.10;;;8.10;99.90;;;;;;5061638;28;20205;-78
2021/01/19 12:47:38;;;;;;;3.70;2.67;;;8.10;99.90;;;;;;5057817;28;20233;-76
2021/01/19 12:50:07;;;;;;;2.15;2.05;;;8.20;99.90;;;;;;5055863;28;20204;-76
2021/01/19 12:52:34;;;;;;;1.80;1.60;;;8.10;99.90;;;;;;5070495;28;20526;-78
2021/01/19 12:55:01;;;;;;;2.30;2.10;;;8.20;99.90;;;;;;5062735;28;20227;-76
2021/01/19 12:57:29;;;;;;;3.10;2.20;;;8.20;99.90;;;;;;5065891;28;20196;-75
2021/01/19 12:59:56;;;;;;;2.00;1.90;;;8.20;99.90;;;;;;5063975;28;20227;-76
2021/01/19 13:02:23;;;;;;;1.90;1.80;;;8.30;99.90;;;;;;5070293;28;20240;-76
2021/01/19 13:04:52;;;;;;;2.15;1.95;;;8.30;99.90;;;;;;5063688;28;20213;-77
2021/01/19 13:07:22;;;;;;;2.20;1.70;;;8.30;99.90;;;;;;5061459;28;20243;-76
2021/01/19 13:09:50;;;;;;;1.90;1.80;;;8.30;99.90;;;;;;5061144;28;20294;-76